sensor_id;sensor_type;location;lat;lon;timestamp;P1;durP1;ratioP1;P2;durP2;ratioP2
14292;SDS011;62290;59.420;17.842;2023-09-08T00:01:40;1.73;;;0.93;;
14292;SDS011;62290;59.420;17.842;2023-09-08T00:04:08;1.85;;;0.95;;
14292;SDS011;62290;59.420;17.842;2023-09-08T00:06:38;2.80;;;0.90;;
14292;SDS011;62290;59.420;17.842;2023-09-08T00:09:06;2.30;;;1.10;;
14292;SDS011;62290;59.420;17.842;2023-09-08T00:11:34;2.80;;;1.63;;
14292;SDS011;62290;59.420;17.842;2023-09-08T00:14:03;3.15;;;1.10;;
14292;SDS011;62290;59.420;17.842;2023-09-08T00:16:31;1.50;;;0.88;;
14292;SDS011;62290;59.420;17.842;2023-09-08T00:18:59;2.05;;;0.77;;
14292;SDS011;62290;59.420;17.842;2023-09-08T00:21:27;1.88;;;1.00;;
14292;SDS011;62290;59.420;17.842;2023-09-08T00:23:55;1.20;;;0.77;;
14292;SDS011;62290;59.420;17.842;2023-09-08T00:26:24;2.95;;;1.00;;
14292;SDS011;62290;59.420;17.842;2023-09-08T00:28:52;1.67;;;0.93;;
14292;SDS011;62290;59.420;17.842;2023-09-08T00:31:21;2.30;;;1.05;;
14292;SDS011;62290;59.420;17.842;2023-09-08T00:33:49;1.75;;;0.90;;
14292;SDS011;62290;59.420;17.842;2023-09-08T00:36:17;1.13;;;1.02;;
14292;SDS011;62290;59.420;17.842;2023-09-08T00:38:46;1.30;;;0.85;;
14292;SDS011;62290;59.420;17.842;2023-09-08T00:41:14;1.73;;;1.10;;
14292;SDS011;62290;59.420;17.842;2023-09-08T00:43:42;1.83;;;1.02;;
14292;SDS011;62290;59.420;17.842;2023-09-08T00:46:10;2.17;;;0.90;;
14292;SDS011;62290;59.420;17.842;2023-09-08T00:48:40;2.33;;;1.00;;
14292;SDS011;62290;59.420;17.842;2023-09-08T00:51:09;2.30;;;1.00;;
14292;SDS011;62290;59.420;17.842;2023-09-08T00:53:38;1.67;;;1.00;;
14292;SDS011;62290;59.420;17.842;2023-09-08T00:56:06;1.73;;;0.95;;
14292;SDS011;62290;59.420;17.842;2023-09-08T00:58:36;2.28;;;1.00;;
14292;SDS011;62290;59.420;17.842;2023-09-08T01:01:04;1.65;;;0.80;;
14292;SDS011;62290;59.420;17.842;2023-09-08T01:03:33;3.38;;;1.45;;
14292;SDS011;62290;59.420;17.842;2023-09-08T01:06:02;2.15;;;0.98;;
14292;SDS011;62290;59.420;17.842;2023-09-08T01:08:31;1.30;;;1.05;;
14292;SDS011;62290;59.420;17.842;2023-09-08T01:10:59;2.10;;;1.10;;
14292;SDS011;62290;59.420;17.842;2023-09-08T01:13:28;3.92;;;1.00;;
14292;SDS011;62290;59.420;17.842;2023-09-08T01:15:55;1.88;;;1.13;;
14292;SDS011;62290;59.420;17.842;2023-09-08T01:18:24;2.15;;;1.40;;
14292;SDS011;62290;59.420;17.842;2023-09-08T01:21:01;2.78;;;1.13;;
14292;SDS011;62290;59.420;17.842;2023-09-08T01:23:50;3.20;;;1.30;;
14292;SDS011;62290;59.420;17.842;2023-09-08T01:26:39;2.15;;;1.25;;
14292;SDS011;62290;59.420;17.842;2023-09-08T01:29:09;3.00;;;1.17;;
14292;SDS011;62290;59.420;17.842;2023-09-08T01:31:38;1.73;;;1.20;;
14292;SDS011;62290;59.420;17.842;2023-09-08T01:34:07;1.25;;;1.10;;
14292;SDS011;62290;59.420;17.842;2023-09-08T01:36:36;1.52;;;1.27;;
14292;SDS011;62290;59.420;17.842;2023-09-08T01:39:05;1.65;;;1.20;;
14292;SDS011;62290;59.420;17.842;2023-09-08T01:41:33;2.08;;;1.40;;
14292;SDS011;62290;59.420;17.842;2023-09-08T01:44:02;2.17;;;1.40;;
14292;SDS011;62290;59.420;17.842;2023-09-08T01:46:34;1.92;;;1.60;;
14292;SDS011;62290;59.420;17.842;2023-09-08T01:49:03;3.47;;;1.75;;
14292;SDS011;62290;59.420;17.842;2023-09-08T01:51:31;1.50;;;1.40;;
14292;SDS011;62290;59.420;17.842;2023-09-08T01:53:59;2.03;;;1.58;;
14292;SDS011;62290;59.420;17.842;2023-09-08T01:56:28;2.75;;;1.88;;
14292;SDS011;62290;59.420;17.842;2023-09-08T01:58:55;6.53;;;1.98;;
14292;SDS011;62290;59.420;17.842;2023-09-08T02:01:27;2.38;;;1.73;;
14292;SDS011;62290;59.420;17.842;2023-09-08T02:03:55;2.70;;;1.83;;
14292;SDS011;62290;59.420;17.842;2023-09-08T02:06:23;3.20;;;1.90;;
14292;SDS011;62290;59.420;17.842;2023-09-08T02:08:51;2.08;;;1.88;;
14292;SDS011;62290;59.420;17.842;2023-09-08T02:11:19;3.55;;;2.20;;
14292;SDS011;62290;59.420;17.842;2023-09-08T02:13:48;2.50;;;2.00;;
14292;SDS011;62290;59.420;17.842;2023-09-08T02:16:16;2.45;;;2.25;;
14292;SDS011;62290;59.420;17.842;2023-09-08T02:18:45;3.75;;;2.00;;
14292;SDS011;62290;59.420;17.842;2023-09-08T02:21:13;2.90;;;2.10;;
14292;SDS011;62290;59.420;17.842;2023-09-08T02:23:41;3.17;;;2.30;;
14292;SDS011;62290;59.420;17.842;2023-09-08T02:26:10;3.45;;;2.63;;
14292;SDS011;62290;59.420;17.842;2023-09-08T02:28:38;4.25;;;2.30;;
14292;SDS011;62290;59.420;17.842;2023-09-08T02:31:06;2.85;;;2.30;;
14292;SDS011;62290;59.420;17.842;2023-09-08T02:33:34;3.38;;;2.80;;
14292;SDS011;62290;59.420;17.842;2023-09-08T02:36:04;2.95;;;2.30;;
14292;SDS011;62290;59.420;17.842;2023-09-08T02:38:35;3.03;;;2.38;;
14292;SDS011;62290;59.420;17.842;2023-09-08T02:41:04;2.92;;;1.98;;
14292;SDS011;62290;59.420;17.842;2023-09-08T02:43:32;3.05;;;2.30;;
14292;SDS011;62290;59.420;17.842;2023-09-08T02:46:00;3.55;;;2.28;;
14292;SDS011;62290;59.420;17.842;2023-09-08T02:48:29;3.22;;;2.33;;
14292;SDS011;62290;59.420;17.842;2023-09-08T02:50:57;6.32;;;2.40;;
14292;SDS011;62290;59.420;17.842;2023-09-08T02:53:27;5.47;;;2.95;;
14292;SDS011;62290;59.420;17.842;2023-09-08T02:55:55;4.30;;;2.85;;
14292;SDS011;62290;59.420;17.842;2023-09-08T02:58:24;3.53;;;2.33;;
14292;SDS011;62290;59.420;17.842;2023-09-08T03:00:53;4.03;;;2.20;;
14292;SDS011;62290;59.420;17.842;2023-09-08T03:03:20;2.58;;;2.38;;
14292;SDS011;62290;59.420;17.842;2023-09-08T03:05:53;3.67;;;2.80;;
14292;SDS011;62290;59.420;17.842;2023-09-08T03:08:23;4.90;;;2.60;;
14292;SDS011;62290;59.420;17.842;2023-09-08T03:10:56;2.80;;;2.38;;
14292;SDS011;62290;59.420;17.842;2023-09-08T03:13:24;5.43;;;2.50;;
14292;SDS011;62290;59.420;17.842;2023-09-08T03:15:52;2.63;;;2.40;;
14292;SDS011;62290;59.420;17.842;2023-09-08T03:18:21;3.08;;;2.55;;
14292;SDS011;62290;59.420;17.842;2023-09-08T03:20:49;3.30;;;2.63;;
14292;SDS011;62290;59.420;17.842;2023-09-08T03:23:17;3.33;;;2.63;;
14292;SDS011;62290;59.420;17.842;2023-09-08T03:25:45;3.50;;;2.53;;
14292;SDS011;62290;59.420;17.842;2023-09-08T03:28:15;2.67;;;2.40;;
14292;SDS011;62290;59.420;17.842;2023-09-08T03:30:42;5.85;;;2.97;;
14292;SDS011;62290;59.420;17.842;2023-09-08T03:33:10;3.92;;;2.60;;
14292;SDS011;62290;59.420;17.842;2023-09-08T03:35:39;3.42;;;3.10;;
14292;SDS011;62290;59.420;17.842;2023-09-08T03:38:07;3.38;;;2.67;;
14292;SDS011;62290;59.420;17.842;2023-09-08T03:40:35;3.55;;;3.00;;
14292;SDS011;62290;59.420;17.842;2023-09-08T03:43:04;3.17;;;2.75;;
14292;SDS011;62290;59.420;17.842;2023-09-08T03:45:33;3.13;;;2.50;;
14292;SDS011;62290;59.420;17.842;2023-09-08T03:48:01;3.17;;;2.55;;
14292;SDS011;62290;59.420;17.842;2023-09-08T03:50:30;3.20;;;2.83;;
14292;SDS011;62290;59.420;17.842;2023-09-08T03:52:58;5.25;;;3.20;;
14292;SDS011;62290;59.420;17.842;2023-09-08T03:55:26;4.57;;;3.15;;
14292;SDS011;62290;59.420;17.842;2023-09-08T03:57:54;3.75;;;2.95;;
14292;SDS011;62290;59.420;17.842;2023-09-08T04:00:21;5.07;;;3.00;;
14292;SDS011;62290;59.420;17.842;2023-09-08T04:02:51;4.55;;;3.10;;
14292;SDS011;62290;59.420;17.842;2023-09-08T04:05:19;5.75;;;3.58;;
14292;SDS011;62290;59.420;17.842;2023-09-08T04:07:47;4.85;;;3.53;;
14292;SDS011;62290;59.420;17.842;2023-09-08T04:10:16;7.45;;;3.72;;
14292;SDS011;62290;59.420;17.842;2023-09-08T04:12:44;5.40;;;3.35;;
14292;SDS011;62290;59.420;17.842;2023-09-08T04:15:12;8.00;;;3.58;;
14292;SDS011;62290;59.420;17.842;2023-09-08T04:17:40;3.53;;;2.80;;
14292;SDS011;62290;59.420;17.842;2023-09-08T04:20:10;3.33;;;3.03;;
14292;SDS011;62290;59.420;17.842;2023-09-08T04:22:41;3.78;;;2.72;;
14292;SDS011;62290;59.420;17.842;2023-09-08T04:25:09;4.20;;;3.40;;
14292;SDS011;62290;59.420;17.842;2023-09-08T04:27:38;4.88;;;3.13;;
14292;SDS011;62290;59.420;17.842;2023-09-08T04:30:07;5.22;;;2.80;;
14292;SDS011;62290;59.420;17.842;2023-09-08T04:32:35;4.53;;;3.55;;
14292;SDS011;62290;59.420;17.842;2023-09-08T04:35:05;5.07;;;3.05;;
14292;SDS011;62290;59.420;17.842;2023-09-08T04:37:35;5.07;;;2.97;;
14292;SDS011;62290;59.420;17.842;2023-09-08T04:40:05;6.95;;;3.20;;
14292;SDS011;62290;59.420;17.842;2023-09-08T04:42:35;5.95;;;3.20;;
14292;SDS011;62290;59.420;17.842;2023-09-08T04:45:04;3.70;;;3.05;;
14292;SDS011;62290;59.420;17.842;2023-09-08T04:47:34;5.07;;;3.42;;
14292;SDS011;62290;59.420;17.842;2023-09-08T04:50:03;5.15;;;3.63;;
14292;SDS011;62290;59.420;17.842;2023-09-08T04:52:32;4.50;;;3.67;;
14292;SDS011;62290;59.420;17.842;2023-09-08T04:55:03;5.43;;;3.38;;
14292;SDS011;62290;59.420;17.842;2023-09-08T04:57:31;5.20;;;3.28;;
14292;SDS011;62290;59.420;17.842;2023-09-08T04:59:59;3.50;;;3.08;;
14292;SDS011;62290;59.420;17.842;2023-09-08T05:02:28;5.05;;;3.70;;
14292;SDS011;62290;59.420;17.842;2023-09-08T05:04:56;4.47;;;3.22;;
14292;SDS011;62290;59.420;17.842;2023-09-08T05:07:24;4.97;;;3.60;;
14292;SDS011;62290;59.420;17.842;2023-09-08T05:09:52;5.05;;;3.67;;
14292;SDS011;62290;59.420;17.842;2023-09-08T05:12:27;4.38;;;3.53;;
14292;SDS011;62290;59.420;17.842;2023-09-08T05:14:55;5.93;;;3.42;;
14292;SDS011;62290;59.420;17.842;2023-09-08T05:17:27;5.15;;;2.92;;
14292;SDS011;62290;59.420;17.842;2023-09-08T05:19:55;3.75;;;3.10;;
14292;SDS011;62290;59.420;17.842;2023-09-08T05:22:23;4.53;;;3.40;;
14292;SDS011;62290;59.420;17.842;2023-09-08T05:24:53;3.50;;;2.70;;
14292;SDS011;62290;59.420;17.842;2023-09-08T05:27:21;4.80;;;3.35;;
14292;SDS011;62290;59.420;17.842;2023-09-08T05:29:50;5.05;;;3.50;;
14292;SDS011;62290;59.420;17.842;2023-09-08T05:32:18;8.15;;;4.15;;
14292;SDS011;62290;59.420;17.842;2023-09-08T05:34:47;4.65;;;3.70;;
14292;SDS011;62290;59.420;17.842;2023-09-08T05:37:15;6.63;;;3.88;;
14292;SDS011;62290;59.420;17.842;2023-09-08T05:39:43;5.07;;;3.90;;
14292;SDS011;62290;59.420;17.842;2023-09-08T05:42:11;5.57;;;3.72;;
14292;SDS011;62290;59.420;17.842;2023-09-08T05:44:39;4.95;;;4.05;;
14292;SDS011;62290;59.420;17.842;2023-09-08T05:47:09;4.13;;;3.67;;
14292;SDS011;62290;59.420;17.842;2023-09-08T05:49:37;9.43;;;3.88;;
14292;SDS011;62290;59.420;17.842;2023-09-08T05:52:05;5.57;;;3.67;;
14292;SDS011;62290;59.420;17.842;2023-09-08T05:54:34;5.22;;;3.75;;
14292;SDS011;62290;59.420;17.842;2023-09-08T05:57:02;6.82;;;3.75;;
14292;SDS011;62290;59.420;17.842;2023-09-08T05:59:31;3.88;;;3.38;;
14292;SDS011;62290;59.420;17.842;2023-09-08T06:01:59;6.47;;;3.90;;
14292;SDS011;62290;59.420;17.842;2023-09-08T06:04:29;5.55;;;3.67;;
14292;SDS011;62290;59.420;17.842;2023-09-08T06:06:59;4.55;;;3.78;;
14292;SDS011;62290;59.420;17.842;2023-09-08T06:09:30;4.18;;;3.85;;
14292;SDS011;62290;59.420;17.842;2023-09-08T06:11:58;6.55;;;3.60;;
14292;SDS011;62290;59.420;17.842;2023-09-08T06:14:26;6.28;;;3.72;;
14292;SDS011;62290;59.420;17.842;2023-09-08T06:16:54;4.65;;;3.80;;
14292;SDS011;62290;59.420;17.842;2023-09-08T06:19:22;4.55;;;3.63;;
14292;SDS011;62290;59.420;17.842;2023-09-08T06:21:52;6.25;;;4.07;;
14292;SDS011;62290;59.420;17.842;2023-09-08T06:24:21;5.38;;;4.53;;
14292;SDS011;62290;59.420;17.842;2023-09-08T06:26:49;5.93;;;4.10;;
14292;SDS011;62290;59.420;17.842;2023-09-08T06:29:18;4.90;;;4.10;;
14292;SDS011;62290;59.420;17.842;2023-09-08T06:31:46;4.55;;;3.92;;
14292;SDS011;62290;59.420;17.842;2023-09-08T06:34:14;4.20;;;3.70;;
14292;SDS011;62290;59.420;17.842;2023-09-08T06:36:43;4.28;;;3.45;;
14292;SDS011;62290;59.420;17.842;2023-09-08T06:39:12;7.38;;;4.22;;
14292;SDS011;62290;59.420;17.842;2023-09-08T06:41:41;5.53;;;3.65;;
14292;SDS011;62290;59.420;17.842;2023-09-08T06:44:11;8.80;;;4.07;;
14292;SDS011;62290;59.420;17.842;2023-09-08T06:46:39;6.72;;;4.82;;
14292;SDS011;62290;59.420;17.842;2023-09-08T06:49:07;12.93;;;4.90;;
14292;SDS011;62290;59.420;17.842;2023-09-08T06:51:35;5.47;;;3.95;;
14292;SDS011;62290;59.420;17.842;2023-09-08T06:54:05;6.03;;;4.05;;
14292;SDS011;62290;59.420;17.842;2023-09-08T06:56:41;4.22;;;3.45;;
14292;SDS011;62290;59.420;17.842;2023-09-08T06:59:10;8.07;;;4.40;;
14292;SDS011;62290;59.420;17.842;2023-09-08T07:01:38;9.38;;;4.32;;
14292;SDS011;62290;59.420;17.842;2023-09-08T07:04:07;6.05;;;4.20;;
14292;SDS011;62290;59.420;17.842;2023-09-08T07:06:37;6.03;;;4.22;;
14292;SDS011;62290;59.420;17.842;2023-09-08T07:09:09;6.00;;;3.92;;
14292;SDS011;62290;59.420;17.842;2023-09-08T07:11:37;5.35;;;3.72;;
14292;SDS011;62290;59.420;17.842;2023-09-08T07:14:06;6.90;;;4.80;;
14292;SDS011;62290;59.420;17.842;2023-09-08T07:16:35;15.23;;;4.72;;
14292;SDS011;62290;59.420;17.842;2023-09-08T07:19:03;9.05;;;4.70;;
14292;SDS011;62290;59.420;17.842;2023-09-08T07:21:32;4.80;;;4.40;;
14292;SDS011;62290;59.420;17.842;2023-09-08T07:24:01;5.53;;;4.18;;
14292;SDS011;62290;59.420;17.842;2023-09-08T07:26:28;4.10;;;3.70;;
14292;SDS011;62290;59.420;17.842;2023-09-08T07:28:57;6.22;;;4.13;;
14292;SDS011;62290;59.420;17.842;2023-09-08T07:31:26;5.85;;;4.72;;
14292;SDS011;62290;59.420;17.842;2023-09-08T07:33:54;6.03;;;3.72;;
14292;SDS011;62290;59.420;17.842;2023-09-08T07:36:22;3.85;;;3.30;;
14292;SDS011;62290;59.420;17.842;2023-09-08T07:38:50;7.55;;;4.60;;
14292;SDS011;62290;59.420;17.842;2023-09-08T07:41:19;5.70;;;4.00;;
14292;SDS011;62290;59.420;17.842;2023-09-08T07:43:47;4.72;;;3.67;;
14292;SDS011;62290;59.420;17.842;2023-09-08T07:46:18;9.60;;;5.32;;
14292;SDS011;62290;59.420;17.842;2023-09-08T07:48:48;9.95;;;4.88;;
14292;SDS011;62290;59.420;17.842;2023-09-08T07:51:17;7.55;;;4.53;;
14292;SDS011;62290;59.420;17.842;2023-09-08T07:53:45;5.93;;;4.68;;
14292;SDS011;62290;59.420;17.842;2023-09-08T07:56:13;4.93;;;4.32;;
14292;SDS011;62290;59.420;17.842;2023-09-08T07:58:41;8.32;;;4.85;;
14292;SDS011;62290;59.420;17.842;2023-09-08T08:01:09;10.43;;;4.60;;
14292;SDS011;62290;59.420;17.842;2023-09-08T08:03:37;4.72;;;4.05;;
14292;SDS011;62290;59.420;17.842;2023-09-08T08:06:06;7.63;;;3.83;;
14292;SDS011;62290;59.420;17.842;2023-09-08T08:08:34;4.55;;;3.45;;
14292;SDS011;62290;59.420;17.842;2023-09-08T08:11:08;6.07;;;3.60;;
14292;SDS011;62290;59.420;17.842;2023-09-08T08:13:37;5.13;;;3.63;;
14292;SDS011;62290;59.420;17.842;2023-09-08T08:16:05;5.57;;;3.85;;
14292;SDS011;62290;59.420;17.842;2023-09-08T08:18:33;4.95;;;3.40;;
14292;SDS011;62290;59.420;17.842;2023-09-08T08:21:02;4.05;;;3.50;;
14292;SDS011;62290;59.420;17.842;2023-09-08T08:23:31;4.07;;;3.50;;
14292;SDS011;62290;59.420;17.842;2023-09-08T08:26:00;4.90;;;3.92;;
14292;SDS011;62290;59.420;17.842;2023-09-08T08:28:29;5.38;;;3.92;;
14292;SDS011;62290;59.420;17.842;2023-09-08T08:30:57;6.10;;;4.03;;
14292;SDS011;62290;59.420;17.842;2023-09-08T08:33:26;6.68;;;4.00;;
14292;SDS011;62290;59.420;17.842;2023-09-08T08:35:55;4.85;;;3.92;;
14292;SDS011;62290;59.420;17.842;2023-09-08T08:38:23;5.13;;;4.10;;
14292;SDS011;62290;59.420;17.842;2023-09-08T08:40:53;6.15;;;3.65;;
14292;SDS011;62290;59.420;17.842;2023-09-08T08:43:21;4.65;;;3.97;;
14292;SDS011;62290;59.420;17.842;2023-09-08T08:45:50;4.53;;;3.38;;
14292;SDS011;62290;59.420;17.842;2023-09-08T08:48:20;6.68;;;3.80;;
14292;SDS011;62290;59.420;17.842;2023-09-08T08:50:51;7.03;;;3.72;;
14292;SDS011;62290;59.420;17.842;2023-09-08T08:53:20;6.40;;;4.00;;
14292;SDS011;62290;59.420;17.842;2023-09-08T08:55:48;5.30;;;3.88;;
14292;SDS011;62290;59.420;17.842;2023-09-08T08:58:21;7.57;;;4.30;;
14292;SDS011;62290;59.420;17.842;2023-09-08T09:00:53;4.40;;;3.80;;
14292;SDS011;62290;59.420;17.842;2023-09-08T09:03:24;3.67;;;3.35;;
14292;SDS011;62290;59.420;17.842;2023-09-08T09:05:54;4.95;;;4.05;;
14292;SDS011;62290;59.420;17.842;2023-09-08T09:08:22;6.00;;;4.00;;
14292;SDS011;62290;59.420;17.842;2023-09-08T09:10:51;4.28;;;3.50;;
14292;SDS011;62290;59.420;17.842;2023-09-08T09:13:19;6.05;;;3.90;;
14292;SDS011;62290;59.420;17.842;2023-09-08T09:15:49;5.95;;;3.70;;
14292;SDS011;62290;59.420;17.842;2023-09-08T09:18:17;4.60;;;3.70;;
14292;SDS011;62290;59.420;17.842;2023-09-08T09:20:53;4.40;;;3.85;;
14292;SDS011;62290;59.420;17.842;2023-09-08T09:23:27;3.92;;;3.50;;
14292;SDS011;62290;59.420;17.842;2023-09-08T09:25:56;4.60;;;3.85;;
14292;SDS011;62290;59.420;17.842;2023-09-08T09:28:26;6.30;;;3.50;;
14292;SDS011;62290;59.420;17.842;2023-09-08T09:30:58;4.35;;;3.47;;
14292;SDS011;62290;59.420;17.842;2023-09-08T09:33:26;5.22;;;3.40;;
14292;SDS011;62290;59.420;17.842;2023-09-08T09:35:56;3.78;;;3.05;;
14292;SDS011;62290;59.420;17.842;2023-09-08T09:38:26;3.83;;;3.50;;
14292;SDS011;62290;59.420;17.842;2023-09-08T09:40:55;4.80;;;3.97;;
14292;SDS011;62290;59.420;17.842;2023-09-08T09:43:22;6.65;;;3.58;;
14292;SDS011;62290;59.420;17.842;2023-09-08T09:45:51;4.03;;;3.53;;
14292;SDS011;62290;59.420;17.842;2023-09-08T09:48:20;3.33;;;3.03;;
14292;SDS011;62290;59.420;17.842;2023-09-08T09:50:49;6.85;;;3.60;;
14292;SDS011;62290;59.420;17.842;2023-09-08T09:53:17;12.15;;;4.85;;
14292;SDS011;62290;59.420;17.842;2023-09-08T09:55:45;15.43;;;5.53;;
14292;SDS011;62290;59.420;17.842;2023-09-08T09:58:13;8.82;;;4.50;;
14292;SDS011;62290;59.420;17.842;2023-09-08T10:00:42;6.47;;;3.92;;
14292;SDS011;62290;59.420;17.842;2023-09-08T10:03:15;8.20;;;4.68;;
14292;SDS011;62290;59.420;17.842;2023-09-08T10:05:44;7.07;;;4.47;;
14292;SDS011;62290;59.420;17.842;2023-09-08T10:08:14;10.40;;;4.65;;
14292;SDS011;62290;59.420;17.842;2023-09-08T10:10:43;6.43;;;3.45;;
14292;SDS011;62290;59.420;17.842;2023-09-08T10:13:14;5.43;;;3.58;;
14292;SDS011;62290;59.420;17.842;2023-09-08T10:15:51;5.22;;;3.25;;
14292;SDS011;62290;59.420;17.842;2023-09-08T10:18:23;11.23;;;3.67;;
14292;SDS011;62290;59.420;17.842;2023-09-08T10:20:53;9.55;;;3.88;;
14292;SDS011;62290;59.420;17.842;2023-09-08T10:23:27;9.45;;;4.20;;
14292;SDS011;62290;59.420;17.842;2023-09-08T10:26:02;10.63;;;3.83;;
14292;SDS011;62290;59.420;17.842;2023-09-08T10:28:33;12.20;;;4.38;;
14292;SDS011;62290;59.420;17.842;2023-09-08T10:31:02;8.38;;;4.05;;
14292;SDS011;62290;59.420;17.842;2023-09-08T10:33:30;8.23;;;4.30;;
14292;SDS011;62290;59.420;17.842;2023-09-08T10:36:00;9.27;;;3.30;;
14292;SDS011;62290;59.420;17.842;2023-09-08T10:38:32;9.32;;;3.70;;
14292;SDS011;62290;59.420;17.842;2023-09-08T10:43:54;7.97;;;3.42;;
14292;SDS011;62290;59.420;17.842;2023-09-08T10:46:26;10.35;;;3.17;;
14292;SDS011;62290;59.420;17.842;2023-09-08T10:48:55;10.73;;;3.97;;
14292;SDS011;62290;59.420;17.842;2023-09-08T10:51:31;10.90;;;3.08;;
14292;SDS011;62290;59.420;17.842;2023-09-08T10:53:59;10.82;;;4.18;;
14292;SDS011;62290;59.420;17.842;2023-09-08T10:56:28;6.40;;;3.75;;
14292;SDS011;62290;59.420;17.842;2023-09-08T10:58:58;7.88;;;3.42;;
14292;SDS011;62290;59.420;17.842;2023-09-08T11:01:28;7.68;;;3.10;;
14292;SDS011;62290;59.420;17.842;2023-09-08T11:03:56;9.48;;;3.67;;
14292;SDS011;62290;59.420;17.842;2023-09-08T11:06:25;5.50;;;3.22;;
14292;SDS011;62290;59.420;17.842;2023-09-08T11:08:58;6.32;;;3.08;;
14292;SDS011;62290;59.420;17.842;2023-09-08T11:11:34;6.13;;;3.17;;
14292;SDS011;62290;59.420;17.842;2023-09-08T11:14:03;7.78;;;3.25;;
14292;SDS011;62290;59.420;17.842;2023-09-08T11:16:31;6.65;;;3.47;;
14292;SDS011;62290;59.420;17.842;2023-09-08T11:19:00;4.00;;;2.83;;
14292;SDS011;62290;59.420;17.842;2023-09-08T11:21:31;7.05;;;3.42;;
14292;SDS011;62290;59.420;17.842;2023-09-08T11:24:04;3.25;;;2.58;;
14292;SDS011;62290;59.420;17.842;2023-09-08T11:26:33;4.93;;;3.13;;
14292;SDS011;62290;59.420;17.842;2023-09-08T11:29:02;9.50;;;2.67;;
14292;SDS011;62290;59.420;17.842;2023-09-08T11:31:31;4.45;;;2.72;;
14292;SDS011;62290;59.420;17.842;2023-09-08T11:33:59;6.03;;;2.83;;
14292;SDS011;62290;59.420;17.842;2023-09-08T11:36:27;5.47;;;3.00;;
14292;SDS011;62290;59.420;17.842;2023-09-08T11:38:56;4.47;;;2.72;;
14292;SDS011;62290;59.420;17.842;2023-09-08T11:41:26;6.15;;;2.95;;
14292;SDS011;62290;59.420;17.842;2023-09-08T11:43:55;5.55;;;3.20;;
14292;SDS011;62290;59.420;17.842;2023-09-08T11:46:23;4.50;;;2.58;;
14292;SDS011;62290;59.420;17.842;2023-09-08T11:48:52;4.72;;;2.40;;
14292;SDS011;62290;59.420;17.842;2023-09-08T11:51:22;4.97;;;3.25;;
14292;SDS011;62290;59.420;17.842;2023-09-08T11:53:50;4.13;;;2.95;;
14292;SDS011;62290;59.420;17.842;2023-09-08T11:56:19;4.40;;;2.90;;
14292;SDS011;62290;59.420;17.842;2023-09-08T11:58:48;3.00;;;2.55;;
14292;SDS011;62290;59.420;17.842;2023-09-08T12:01:17;4.65;;;2.92;;
14292;SDS011;62290;59.420;17.842;2023-09-08T12:03:52;3.08;;;2.58;;
14292;SDS011;62290;59.420;17.842;2023-09-08T12:06:23;7.15;;;2.90;;
14292;SDS011;62290;59.420;17.842;2023-09-08T12:08:52;3.08;;;2.58;;
14292;SDS011;62290;59.420;17.842;2023-09-08T12:11:19;4.07;;;2.75;;
14292;SDS011;62290;59.420;17.842;2023-09-08T12:13:49;4.43;;;2.58;;
14292;SDS011;62290;59.420;17.842;2023-09-08T12:16:17;3.65;;;2.47;;
14292;SDS011;62290;59.420;17.842;2023-09-08T12:18:46;3.75;;;2.30;;
14292;SDS011;62290;59.420;17.842;2023-09-08T12:21:15;5.60;;;2.83;;
14292;SDS011;62290;59.420;17.842;2023-09-08T12:23:49;3.67;;;2.35;;
14292;SDS011;62290;59.420;17.842;2023-09-08T12:26:18;4.05;;;2.47;;
14292;SDS011;62290;59.420;17.842;2023-09-08T12:28:46;3.58;;;2.53;;
14292;SDS011;62290;59.420;17.842;2023-09-08T12:31:16;2.58;;;2.38;;
14292;SDS011;62290;59.420;17.842;2023-09-08T12:33:45;6.28;;;2.40;;
14292;SDS011;62290;59.420;17.842;2023-09-08T12:36:14;4.20;;;2.20;;
14292;SDS011;62290;59.420;17.842;2023-09-08T12:38:46;3.95;;;2.17;;
14292;SDS011;62290;59.420;17.842;2023-09-08T12:41:15;2.63;;;1.95;;
14292;SDS011;62290;59.420;17.842;2023-09-08T12:43:44;3.05;;;2.45;;
14292;SDS011;62290;59.420;17.842;2023-09-08T12:46:12;2.67;;;2.10;;
14292;SDS011;62290;59.420;17.842;2023-09-08T12:48:41;2.63;;;2.17;;
14292;SDS011;62290;59.420;17.842;2023-09-08T12:51:09;3.13;;;2.33;;
14292;SDS011;62290;59.420;17.842;2023-09-08T12:53:37;3.50;;;2.47;;
14292;SDS011;62290;59.420;17.842;2023-09-08T12:56:05;3.05;;;2.10;;
14292;SDS011;62290;59.420;17.842;2023-09-08T12:58:33;2.65;;;2.10;;
14292;SDS011;62290;59.420;17.842;2023-09-08T13:01:01;2.67;;;2.03;;
14292;SDS011;62290;59.420;17.842;2023-09-08T13:03:31;2.63;;;2.40;;
14292;SDS011;62290;59.420;17.842;2023-09-08T13:06:01;2.97;;;2.17;;
14292;SDS011;62290;59.420;17.842;2023-09-08T13:08:29;2.78;;;2.33;;
14292;SDS011;62290;59.420;17.842;2023-09-08T13:10:57;2.55;;;2.20;;
14292;SDS011;62290;59.420;17.842;2023-09-08T13:13:25;3.70;;;2.30;;
14292;SDS011;62290;59.420;17.842;2023-09-08T13:15:54;3.55;;;2.38;;
14292;SDS011;62290;59.420;17.842;2023-09-08T13:18:22;2.70;;;2.28;;
14292;SDS011;62290;59.420;17.842;2023-09-08T13:20:50;2.10;;;1.90;;
14292;SDS011;62290;59.420;17.842;2023-09-08T13:23:19;3.13;;;2.53;;
14292;SDS011;62290;59.420;17.842;2023-09-08T13:25:48;2.53;;;2.33;;
14292;SDS011;62290;59.420;17.842;2023-09-08T13:28:16;3.05;;;2.30;;
14292;SDS011;62290;59.420;17.842;2023-09-08T13:30:44;3.03;;;2.40;;
14292;SDS011;62290;59.420;17.842;2023-09-08T13:33:12;3.05;;;2.28;;
14292;SDS011;62290;59.420;17.842;2023-09-08T13:35:40;2.38;;;2.17;;
14292;SDS011;62290;59.420;17.842;2023-09-08T13:38:08;2.58;;;2.38;;
14292;SDS011;62290;59.420;17.842;2023-09-08T13:40:37;3.42;;;2.20;;
14292;SDS011;62290;59.420;17.842;2023-09-08T13:43:06;2.55;;;2.00;;
14292;SDS011;62290;59.420;17.842;2023-09-08T13:45:34;2.83;;;2.35;;
14292;SDS011;62290;59.420;17.842;2023-09-08T13:48:02;3.20;;;2.42;;
14292;SDS011;62290;59.420;17.842;2023-09-08T13:50:33;2.30;;;1.80;;
14292;SDS011;62290;59.420;17.842;2023-09-08T13:53:03;2.85;;;2.22;;
14292;SDS011;62290;59.420;17.842;2023-09-08T13:55:34;3.72;;;2.05;;
14292;SDS011;62290;59.420;17.842;2023-09-08T13:58:09;2.83;;;1.92;;
14292;SDS011;62290;59.420;17.842;2023-09-08T14:00:39;3.10;;;2.42;;
14292;SDS011;62290;59.420;17.842;2023-09-08T14:03:09;3.05;;;2.40;;
14292;SDS011;62290;59.420;17.842;2023-09-08T14:05:41;2.50;;;2.30;;
14292;SDS011;62290;59.420;17.842;2023-09-08T14:08:16;4.10;;;2.33;;
14292;SDS011;62290;59.420;17.842;2023-09-08T14:10:49;2.28;;;1.90;;
14292;SDS011;62290;59.420;17.842;2023-09-08T14:13:31;2.10;;;1.70;;
14292;SDS011;62290;59.420;17.842;2023-09-08T14:16:00;2.50;;;2.22;;
14292;SDS011;62290;59.420;17.842;2023-09-08T14:18:28;2.75;;;2.20;;
14292;SDS011;62290;59.420;17.842;2023-09-08T14:20:56;2.17;;;1.90;;
14292;SDS011;62290;59.420;17.842;2023-09-08T14:23:24;2.63;;;2.13;;
14292;SDS011;62290;59.420;17.842;2023-09-08T14:25:53;2.88;;;2.22;;
14292;SDS011;62290;59.420;17.842;2023-09-08T14:28:21;2.30;;;2.10;;
14292;SDS011;62290;59.420;17.842;2023-09-08T14:30:50;3.90;;;2.45;;
14292;SDS011;62290;59.420;17.842;2023-09-08T14:33:19;2.55;;;2.20;;
14292;SDS011;62290;59.420;17.842;2023-09-08T14:35:47;2.22;;;1.70;;
14292;SDS011;62290;59.420;17.842;2023-09-08T14:38:18;2.03;;;1.70;;
14292;SDS011;62290;59.420;17.842;2023-09-08T14:40:53;2.75;;;1.95;;
14292;SDS011;62290;59.420;17.842;2023-09-08T14:43:22;2.90;;;1.95;;
14292;SDS011;62290;59.420;17.842;2023-09-08T14:45:52;3.38;;;2.00;;
14292;SDS011;62290;59.420;17.842;2023-09-08T14:48:20;2.53;;;2.05;;